Time;durP1;ratioP1;P1;durP2;ratioP2;P2;SDS_P1;SDS_P2;PMS_P1;PMS_P2;Temp;Humidity;BMP_temperature;BMP_pressure;BME280_temperature;BME280_humidity;BME280_pressure;Samples;Min_cycle;Max_cycle;Signal;HPM_P1;HPM_P2
2021/04/01 00:01:18;;;;;;;36.58;23.17;;;230.90;2252.80;;;;;;4973322;28;20038;-85
2021/04/01 00:03:45;;;;;;;37.47;23.58;;;230.90;2252.80;;;;;;4977716;28;20058;-83
2021/04/01 00:06:16;;;;;;;43.45;27.17;;;230.90;2252.80;;;;;;4996327;28;20121;-84
2021/04/01 00:08:56;;;;;;;39.72;24.35;;;230.90;2252.80;;;;;;5012272;28;20057;-85
2021/04/01 00:11:27;;;;;;;40.60;24.83;;;230.80;2252.80;;;;;;4995564;28;20034;-84
2021/04/01 00:14:34;;;;;;;43.28;23.85;;;230.80;2252.80;;;;;;4990667;28;20034;-85
2021/04/01 00:17:27;;;;;;;43.28;23.73;;;230.70;2252.80;;;;;;4940164;29;20039;-82
2021/04/01 00:19:59;;;;;;;39.20;25.33;;;230.60;2252.80;;;;;;4993478;28;20041;-85
2021/04/01 00:22:45;;;;;;;33.20;21.23;;;230.60;2252.80;;;;;;4994727;28;20111;-85
2021/04/01 00:25:38;;;;;;;33.53;21.58;;;230.60;2252.80;;;;;;4994594;28;20042;-85
2021/04/01 00:28:11;;;;;;;41.83;22.48;;;230.60;2252.80;;;;;;5006125;28;20045;-85
2021/04/01 00:30:57;;;;;;;42.22;24.88;;;230.50;2252.80;;;;;;5007962;28;20032;-85
2021/04/01 00:33:27;;;;;;;37.35;23.25;;;230.40;2252.80;;;;;;4977499;28;20536;-85
2021/04/01 00:35:57;;;;;;;50.08;27.60;;;205.50;2252.80;;;;;;4995806;28;20037;-85
2021/04/01 00:38:30;;;;;;;44.63;27.73;;;205.60;2252.80;;;;;;4995414;28;20029;-85
2021/04/01 00:40:57;;;;;;;33.22;20.38;;;205.50;2252.80;;;;;;4995591;28;20038;-85
2021/04/01 00:43:28;;;;;;;34.78;20.70;;;230.80;2252.80;;;;;;4978793;28;20065;-85
2021/04/01 00:46:04;;;;;;;41.22;22.10;;;205.70;2252.80;;;;;;5012997;28;20501;-85
2021/04/01 00:48:37;;;;;;;36.70;20.58;;;205.50;2252.80;;;;;;4998143;28;20500;-84
2021/04/01 00:51:21;;;;;;;35.40;19.90;;;205.60;2252.80;;;;;;5016328;28;20038;-85
2021/04/01 00:53:54;;;;;;;30.98;20.08;;;205.70;2252.80;;;;;;4999187;28;20026;-84
2021/04/01 00:56:25;;;;;;;35.30;19.90;;;205.50;2252.80;;;;;;5016878;28;20033;-84
2021/04/01 00:58:54;;;;;;;41.58;24.00;;;205.70;2252.80;;;;;;5016877;28;20092;-84
2021/04/01 01:04:10;;;;;;;30.52;20.60;;;205.30;2252.80;;;;;;5017152;28;20037;-85
2021/04/01 01:06:42;;;;;;;34.85;21.30;;;205.50;2252.80;;;;;;4998487;28;20088;-84
2021/04/01 01:09:23;;;;;;;31.63;19.27;;;205.50;2252.80;;;;;;5016469;28;20490;-85
2021/04/01 01:11:55;;;;;;;33.90;18.45;;;205.60;2252.80;;;;;;4997351;28;20195;-85
2021/04/01 01:14:36;;;;;;;34.78;19.10;;;205.50;2252.80;;;;;;4997422;28;20066;-85
2021/04/01 01:17:07;;;;;;;27.67;18.13;;;205.50;2252.80;;;;;;4983006;28;20034;-85
2021/04/01 01:19:54;;;;;;;35.85;19.77;;;205.30;2252.80;;;;;;4982493;28;20026;-84
2021/04/01 01:22:38;;;;;;;38.53;21.92;;;205.30;2252.80;;;;;;5013972;28;20030;-84
2021/04/01 01:25:27;;;;;;;40.25;22.95;;;205.40;2252.80;;;;;;4998442;28;20034;-85
2021/04/01 01:28:13;;;;;;;34.75;19.40;;;205.30;2252.80;;;;;;4992144;28;20026;-84
2021/04/01 01:31:08;;;;;;;41.60;22.85;;;205.40;2252.80;;;;;;5016555;28;20034;-84
2021/04/01 01:33:42;;;;;;;34.28;19.52;;;205.20;2252.80;;;;;;5014869;28;20026;-85
2021/04/01 01:36:17;;;;;;;34.53;20.63;;;205.30;2252.80;;;;;;5014599;28;20423;-85
2021/04/01 01:38:48;;;;;;;30.63;18.58;;;205.30;2252.80;;;;;;4998520;28;20092;-84
2021/04/01 01:41:19;;;;;;;25.85;16.25;;;205.10;2252.80;;;;;;4998471;28;20029;-83
2021/04/01 01:43:51;;;;;;;29.42;17.88;;;205.20;2252.80;;;;;;5014956;28;20543;-84
2021/04/01 01:46:22;;;;;;;26.25;16.40;;;205.30;2252.80;;;;;;4998585;28;20112;-84
2021/04/01 01:49:27;;;;;;;29.10;17.02;;;205.20;2252.80;;;;;;4996644;28;20038;-83
2021/04/01 01:51:54;;;;;;;25.65;14.90;;;205.30;2252.80;;;;;;5011212;28;20030;-83
2021/04/01 01:54:22;;;;;;;27.55;16.67;;;205.20;2252.80;;;;;;4995534;28;20041;-85
2021/04/01 01:56:54;;;;;;;28.30;16.77;;;205.20;2252.80;;;;;;5015338;28;20034;-85
2021/04/01 01:59:40;;;;;;;29.85;16.08;;;205.20;2252.80;;;;;;4950248;28;20049;-84
2021/04/01 02:02:59;;;;;;;26.60;16.35;;;205.00;2252.80;;;;;;4981451;28;20041;-85
2021/04/01 02:06:45;;;;;;;23.50;14.52;;;205.40;2252.80;;;;;;4936037;29;20044;-84
2021/04/01 02:09:46;;;;;;;29.48;16.38;;;205.00;2252.80;;;;;;4934255;29;20214;-85
2021/04/01 02:13:27;;;;;;;30.25;17.52;;;205.10;2252.80;;;;;;4926343;29;20034;-84
2021/04/01 02:20:14;;;;;;;25.45;16.48;;;205.00;2252.80;;;;;;4869730;29;20033;-85
2021/04/01 02:23:36;;;;;;;25.25;16.60;;;205.10;2252.80;;;;;;4917348;29;20047;-85
2021/04/01 02:26:30;;;;;;;31.08;18.80;;;205.00;2252.80;;;;;;4914186;29;20377;-84
2021/04/01 02:29:32;;;;;;;23.50;14.43;;;205.20;2252.80;;;;;;4925371;29;20028;-84
2021/04/01 02:34:53;;;;;;;25.17;14.55;;;205.20;2252.80;;;;;;4935967;29;20030;-85
2021/04/01 02:37:39;;;;;;;20.67;14.70;;;205.20;2252.80;;;;;;4973611;28;20105;-84
2021/04/01 02:40:35;;;;;;;27.38;15.40;;;205.10;2252.80;;;;;;4927453;28;20113;-84
2021/04/01 02:43:34;;;;;;;25.65;16.13;;;205.20;2252.80;;;;;;4970951;28;20101;-85
2021/04/01 02:46:15;;;;;;;26.15;15.63;;;205.30;2252.80;;;;;;4957561;28;20035;-85
2021/04/01 02:48:49;;;;;;;24.58;13.80;;;205.40;2252.80;;;;;;4955590;28;20601;-84
2021/04/01 02:51:45;;;;;;;25.08;12.75;;;205.20;2252.80;;;;;;4972097;28;20086;-85
2021/04/01 02:55:03;;;;;;;28.75;13.80;;;205.30;2252.80;;;;;;4942228;28;20031;-85
2021/04/01 02:58:16;;;;;;;24.20;14.32;;;205.10;2252.80;;;;;;4954228;28;20031;-85
2021/04/01 03:01:51;;;;;;;19.75;13.63;;;205.00;2252.80;;;;;;4953520;28;20049;-84
2021/04/01 03:05:21;;;;;;;21.20;13.48;;;205.20;2252.80;;;;;;4994777;28;20390;-84
2021/04/01 03:08:19;;;;;;;21.00;13.05;;;205.10;2252.80;;;;;;4884713;29;20373;-85
2021/04/01 03:11:07;;;;;;;23.55;13.15;;;205.20;2252.80;;;;;;4928912;29;20452;-84
2021/04/01 03:17:20;;;;;;;16.13;12.45;;;205.20;2252.80;;;;;;4916185;29;20035;-85
2021/04/01 03:20:25;;;;;;;15.98;11.10;;;205.30;2252.80;;;;;;4900403;29;20119;-84
2021/04/01 03:22:54;;;;;;;22.23;12.73;;;205.40;2252.80;;;;;;4909301;29;20131;-84
2021/04/01 03:25:36;;;;;;;18.33;12.55;;;205.40;2252.80;;;;;;4942722;28;20031;-84
2021/04/01 03:28:19;;;;;;;16.50;11.65;;;205.60;2252.80;;;;;;4958463;28;20059;-84
2021/04/01 03:33:44;;;;;;;15.98;12.45;;;205.50;2252.80;;;;;;4959375;28;20041;-84
2021/04/01 03:36:46;;;;;;;22.23;14.38;;;205.40;2252.80;;;;;;4961717;28;20067;-85
2021/04/01 03:39:17;;;;;;;21.95;13.73;;;205.10;2252.80;;;;;;4958571;28;20082;-84
2021/04/01 03:42:00;;;;;;;22.38;13.73;;;205.20;2252.80;;;;;;4972721;28;20027;-83
2021/04/01 03:44:40;;;;;;;22.30;13.98;;;205.30;2252.80;;;;;;4970239;28;20039;-85
2021/04/01 03:47:12;;;;;;;23.50;15.10;;;205.20;2252.80;;;;;;4971857;28;20034;-85
2021/04/01 03:49:46;;;;;;;26.42;16.58;;;205.00;2252.80;;;;;;4940653;28;20069;-85
2021/04/01 03:52:16;;;;;;;25.58;15.70;;;205.00;2252.80;;;;;;4956698;28;20502;-84
2021/04/01 03:54:51;;;;;;;26.73;15.50;;;205.20;2252.80;;;;;;4971005;28;20038;-86
2021/04/01 03:57:33;;;;;;;23.02;14.75;;;205.40;2252.80;;;;;;4972771;28;20383;-85
2021/04/01 04:00:21;;;;;;;25.25;15.65;;;205.20;2252.80;;;;;;4964184;28;20038;-84
2021/04/01 04:11:40;;;;;;;21.40;14.27;;;205.20;2252.80;;;;;;5001118;28;20108;-84
2021/04/01 04:14:23;;;;;;;;;;;205.20;2252.80;;;;;;4982171;28;20129;-84
2021/04/01 04:17:47;;;;;;;19.45;12.88;;;205.10;2252.80;;;;;;4995877;28;19909;-85
2021/04/01 04:20:18;;;;;;;22.85;15.18;;;205.00;2252.80;;;;;;5013524;28;20045;-84
2021/04/01 04:23:19;;;;;;;26.65;15.60;;;205.20;2252.80;;;;;;5010518;28;20048;-85
2021/04/01 04:26:28;;;;;;;29.48;17.17;;;205.20;2252.80;;;;;;5015819;28;20034;-83
2021/04/01 04:28:58;;;;;;;27.38;17.40;;;205.20;2252.80;;;;;;5013794;28;20042;-84
2021/04/01 04:31:33;;;;;;;44.33;28.10;;;205.20;2252.80;;;;;;4981439;28;20092;-85
2021/04/01 04:34:27;;;;;;;61.92;35.60;;;205.30;2252.80;;;;;;5003293;28;20061;-84
2021/04/01 04:37:16;;;;;;;51.72;31.80;;;205.40;2252.80;;;;;;5000037;28;20029;-85
2021/04/01 04:40:09;;;;;;;48.30;31.73;;;205.30;2252.80;;;;;;4985156;28;20481;-84
2021/04/01 04:42:39;;;;;;;53.30;33.45;;;205.50;2252.80;;;;;;4982416;28;20057;-84
2021/04/01 04:45:10;;;;;;;62.15;36.15;;;205.50;2252.80;;;;;;4998836;28;20421;-85
2021/04/01 04:47:46;;;;;;;42.05;28.83;;;205.50;2252.80;;;;;;4981863;28;20048;-85
2021/04/01 04:50:59;;;;;;;38.25;25.85;;;205.20;2252.80;;;;;;4998134;28;20489;-85
2021/04/01 04:53:30;;;;;;;38.42;24.50;;;205.20;2252.80;;;;;;4999164;28;20026;-85
2021/04/01 04:56:13;;;;;;;41.40;24.70;;;205.40;2252.80;;;;;;5014477;28;20034;-84
2021/04/01 05:04:39;;;;;;;85.57;44.72;;;205.50;2252.80;;;;;;5016849;28;20120;-84
2021/04/01 05:07:12;;;;;;;73.63;39.60;;;205.60;2252.80;;;;;;5017000;28;20105;-85
2021/04/01 05:09:42;;;;;;;70.13;38.63;;;205.70;2252.80;;;;;;4983700;28;20029;-85
2021/04/01 05:12:14;;;;;;;75.05;44.10;;;205.70;2252.80;;;;;;4998572;28;20104;-85
2021/04/01 05:15:03;;;;;;;60.55;36.72;;;230.40;2252.80;;;;;;5013629;28;20026;-85
2021/04/01 05:17:42;;;;;;;61.38;37.90;;;230.40;2252.80;;;;;;4998969;28;20022;-85
2021/04/01 05:20:13;;;;;;;48.22;30.35;;;230.60;2252.80;;;;;;4999411;28;20038;-84
2021/04/01 05:22:45;;;;;;;49.25;30.27;;;230.50;2252.80;;;;;;5011533;28;20026;-85
2021/04/01 05:25:21;;;;;;;48.85;30.65;;;205.40;2252.80;;;;;;5000279;28;20116;-84
2021/04/01 05:27:55;;;;;;;46.90;30.80;;;230.60;2252.80;;;;;;5015196;28;20018;-84
2021/04/01 05:30:23;;;;;;;54.72;32.33;;;231.20;2252.80;;;;;;4997540;28;20174;-85
2021/04/01 05:32:56;;;;;;;54.85;33.13;;;230.80;2252.80;;;;;;4997933;28;20075;-85
2021/04/01 05:35:50;;;;;;;53.47;32.50;;;230.70;2252.80;;;;;;4966636;28;20124;-85
2021/04/01 05:38:29;;;;;;;56.88;38.60;;;230.70;2252.80;;;;;;4994279;28;20589;-84
2021/04/01 05:41:04;;;;;;;67.93;41.72;;;230.50;2252.80;;;;;;4994128;28;20038;-85
2021/04/01 05:44:23;;;;;;;83.53;52.17;;;230.50;2252.80;;;;;;4977567;28;20490;-85
2021/04/01 05:46:59;;;;;;;76.75;54.97;;;230.60;2252.80;;;;;;4993870;28;20038;-85
2021/04/01 05:50:15;;;;;;;83.10;57.05;;;230.60;2252.80;;;;;;4993644;28;20057;-84
2021/04/01 06:03:49;;;;;;;94.40;58.60;;;230.90;2252.80;;;;;;4936279;29;20084;-84
2021/04/01 06:06:44;;;;;;;103.95;62.63;;;231.20;2252.80;;;;;;4898416;29;20080;-83
2021/04/01 06:09:20;;;;;;;108.80;70.90;;;231.20;2252.80;;;;;;4897857;29;20045;-84
2021/04/01 06:12:33;;;;;;;103.28;68.47;;;231.00;2252.80;;;;;;4866499;29;20124;-84
2021/04/01 06:15:24;;;;;;;90.65;59.58;;;231.30;2252.80;;;;;;4897524;29;20040;-84
2021/04/01 06:18:36;;;;;;;94.05;62.13;;;256.00;2252.80;;;;;;4867560;29;20044;-84
2021/04/01 06:21:49;;;;;;;91.57;62.05;;;256.00;2252.80;;;;;;4896206;29;20425;-84
2021/04/01 06:25:25;;;;;;;82.05;57.92;;;256.20;2252.80;;;;;;4881114;29;20028;-83
2021/04/01 06:29:03;;;;;;;85.22;59.78;;;256.20;2252.80;;;;;;4896283;29;20521;-84
2021/04/01 06:32:24;;;;;;;76.20;49.63;;;256.40;2252.80;;;;;;4882541;29;20048;-84
2021/04/01 06:34:52;;;;;;;83.35;51.45;;;256.40;2252.80;;;;;;4918461;29;20095;-83
2021/04/01 06:38:12;;;;;;;;;;;;;;;;;;;;;
2021/04/01 06:41:18;;;;;;;59.58;40.83;;;256.90;2252.80;;;;;;4934832;29;20040;-83
2021/04/01 06:44:34;;;;;;;71.38;45.92;;;281.60;2278.40;;;;;;4934115;29;20047;-84
2021/04/01 06:47:50;;;;;;;81.05;57.13;;;281.70;2278.40;;;;;;4935286;29;20111;-83
2021/04/01 06:50:46;;;;;;;50.22;36.35;;;281.90;2278.40;;;;;;4931195;29;20039;-84
2021/04/01 06:53:20;;;;;;;45.85;33.50;;;282.00;2278.40;;;;;;4935531;29;20157;-84
2021/04/01 06:59:55;;;;;;;30.30;24.27;;;282.30;2278.40;;;;;;4997377;28;20034;-83
2021/04/01 07:02:33;;;;;;;29.23;20.90;;;282.40;2278.40;;;;;;4976326;28;20038;-83
2021/04/01 07:13:45;;;;;;;37.17;25.52;;;307.50;2278.40;;;;;;5011538;28;20038;-84
2021/04/01 07:16:17;;;;;;;36.85;26.20;;;307.50;2278.40;;;;;;4996724;28;20535;-84
2021/04/01 07:19:17;;;;;;;37.20;25.05;;;307.80;2252.80;;;;;;4996670;28;20022;-82
2021/04/01 07:47:42;;;;;;;28.50;19.27;;;333.60;2176.00;;;;;;5013683;28;20026;-83
2021/04/01 07:51:44;;;;;;;24.52;17.10;;;333.70;2176.00;;;;;;4997149;28;20034;-82
2021/04/01 07:54:11;;;;;;;26.35;17.20;;;333.70;2124.80;;;;;;4921721;29;20079;-84
2021/04/01 07:56:56;;;;;;;29.30;19.20;;;358.50;2124.80;;;;;;4921285;28;20032;-83
2021/04/01 08:04:29;;;;;;;20.50;15.60;;;358.90;2099.20;;;;;;5013859;28;20029;-83
2021/04/01 08:07:15;;;;;;;25.30;16.73;;;359.00;2099.20;;;;;;4996102;28;20025;-83
2021/04/01 08:09:45;;;;;;;21.73;15.40;;;359.00;2048.00;;;;;;4996742;28;20030;-83
2021/04/01 08:12:20;;;;;;;23.85;16.70;;;359.20;2022.40;;;;;;4996684;28;20164;-84
2021/04/01 08:15:01;;;;;;;22.40;14.55;;;384.10;1996.80;;;;;;4996129;28;20478;-83
2021/04/01 08:17:47;;;;;;;20.30;13.23;;;384.10;1945.60;;;;;;4996907;28;20057;-84
2021/04/01 08:20:21;;;;;;;21.00;12.48;;;384.10;1920.00;;;;;;4996175;28;20100;-81
2021/04/01 08:23:19;;;;;;;17.88;13.63;;;384.30;1920.00;;;;;;4996122;28;20030;-82
2021/04/01 08:25:57;;;;;;;18.98;13.65;;;384.50;1945.60;;;;;;4990688;28;20149;-80
2021/04/01 08:31:39;;;;;;;22.83;15.50;;;384.70;1920.00;;;;;;5013873;28;20052;-81
2021/04/01 08:34:45;;;;;;;25.15;13.85;;;384.90;1894.40;;;;;;4996109;28;20030;-78
2021/04/01 08:37:06;;;;;;;21.92;14.15;;;409.60;1894.40;;;;;;5010871;28;20022;-79
2021/04/01 08:39:35;;;;;;;20.02;14.05;;;409.70;1843.20;;;;;;5013636;28;20030;-75
2021/04/01 08:42:07;;;;;;;21.90;13.45;;;409.70;1868.80;;;;;;5013037;28;20033;-75
2021/04/01 08:45:30;;;;;;;21.05;13.43;;;409.80;1868.80;;;;;;4996051;28;20120;-76
2021/04/01 08:48:05;;;;;;;16.65;11.50;;;409.90;1843.20;;;;;;4995672;28;20049;-76
2021/04/01 08:51:10;;;;;;;18.70;13.30;;;410.10;1766.40;;;;;;4995569;28;20501;-76
2021/04/01 08:53:42;;;;;;;20.27;13.02;;;410.20;1792.00;;;;;;5011957;28;20113;-77
2021/04/01 08:56:28;;;;;;;16.60;11.80;;;410.40;1766.40;;;;;;4994846;28;20029;-73
2021/04/01 08:59:11;;;;;;;20.65;13.63;;;410.50;1715.20;;;;;;4994454;28;20037;-73
2021/04/01 09:01:40;;;;;;;15.50;11.50;;;435.30;1715.20;;;;;;4994137;28;20030;-73
2021/04/01 09:04:07;;;;;;;14.75;11.65;;;435.50;1715.20;;;;;;4995675;28;20030;-74
2021/04/01 09:06:46;;;;;;;19.70;13.30;;;435.20;1689.60;;;;;;5011152;28;20163;-77
2021/04/01 09:09:13;;;;;;;25.52;12.80;;;435.50;1689.60;;;;;;5016667;28;20121;-77
2021/04/01 09:11:51;;;;;;;16.63;12.20;;;435.60;1664.00;;;;;;4997114;28;20148;-77
2021/04/01 09:14:30;;;;;;;12.27;9.43;;;435.80;1638.40;;;;;;4999109;28;20370;-75
2021/04/01 09:17:09;;;;;;;21.15;10.88;;;436.00;1587.20;;;;;;5016353;28;20029;-76
2021/04/01 09:19:40;;;;;;;18.23;11.82;;;436.10;1561.60;;;;;;5017265;28;20101;-78
2021/04/01 09:22:23;;;;;;;18.10;12.93;;;460.80;1587.20;;;;;;5017037;28;20026;-76
2021/04/01 09:25:05;;;;;;;16.00;11.18;;;460.90;1587.20;;;;;;5015190;28;20026;-75
2021/04/01 09:27:31;;;;;;;13.73;10.20;;;461.10;1587.20;;;;;;4998503;28;20065;-75
2021/04/01 09:30:10;;;;;;;20.40;11.93;;;461.10;1536.00;;;;;;4999066;28;20038;-74
2021/04/01 09:32:39;;;;;;;16.48;10.38;;;461.10;1561.60;;;;;;5015456;28;20030;-75
2021/04/01 09:35:08;;;;;;;15.82;10.80;;;461.10;1510.40;;;;;;5016435;28;20041;-74
2021/04/01 09:37:34;;;;;;;18.58;10.32;;;461.40;1484.80;;;;;;4998383;28;20059;-74
2021/04/01 09:40:09;;;;;;;18.55;10.30;;;461.30;1484.80;;;;;;4997573;28;20363;-75
2021/04/01 09:42:42;;;;;;;16.35;9.95;;;461.40;1484.80;;;;;;4997822;28;20022;-76
2021/04/01 09:45:11;;;;;;;15.07;11.60;;;461.50;1459.20;;;;;;4998441;28;20112;-74
2021/04/01 09:47:50;;;;;;;20.98;10.50;;;486.40;1459.20;;;;;;4998710;28;20062;-76
2021/04/01 09:50:16;;;;;;;14.98;9.23;;;486.50;1408.00;;;;;;5014799;28;20026;-76
2021/04/01 09:53:02;;;;;;;14.90;9.43;;;461.70;1433.60;;;;;;5014292;28;20441;-76
2021/04/01 09:55:40;;;;;;;16.75;11.13;;;486.60;1408.00;;;;;;5014685;28;20033;-74
2021/04/01 09:58:25;;;;;;;20.08;11.05;;;486.70;1433.60;;;;;;4998145;28;20041;-73
2021/04/01 10:03:37;;;;;;;14.60;11.52;;;487.10;1408.00;;;;;;5015695;28;20053;-73
2021/04/01 10:06:03;;;;;;;20.38;12.07;;;487.10;1382.40;;;;;;4998649;28;20114;-74
2021/04/01 10:08:31;;;;;;;18.95;10.05;;;487.20;1382.40;;;;;;4998278;28;20026;-73
2021/04/01 10:11:15;;;;;;;12.27;9.40;;;487.30;1356.80;;;;;;5015196;28;20037;-73
2021/04/01 10:13:40;;;;;;;15.88;8.88;;;487.30;1331.20;;;;;;4998034;28;20046;-73
2021/04/01 10:16:22;;;;;;;16.20;9.57;;;512.20;1331.20;;;;;;5015623;28;20421;-72
2021/04/01 10:18:48;;;;;;;16.55;9.13;;;512.30;1331.20;;;;;;5014822;28;20033;-74
2021/04/01 10:21:14;;;;;;;15.73;9.73;;;487.10;1331.20;;;;;;5014843;28;20030;-75
2021/04/01 10:23:47;;;;;;;13.07;9.38;;;512.20;1305.60;;;;;;4997064;28;20029;-74
2021/04/01 10:26:15;;;;;;;14.70;10.02;;;512.60;1331.20;;;;;;5000627;28;20128;-74
2021/04/01 10:28:59;;;;;;;25.38;13.07;;;512.80;1331.20;;;;;;5015548;28;20021;-73
2021/04/01 10:31:25;;;;;;;18.70;12.90;;;537.60;1331.20;;;;;;5013803;28;20037;-74
2021/04/01 10:34:06;;;;;;;21.80;11.30;;;537.60;1305.60;;;;;;4997592;28;20435;-74
2021/04/01 10:36:32;;;;;;;12.35;9.73;;;537.70;1305.60;;;;;;4998236;28;20351;-74
2021/04/01 10:39:19;;;;;;;11.95;8.85;;;537.90;1305.60;;;;;;5014976;28;20053;-73
2021/04/01 10:41:50;;;;;;;10.40;8.23;;;537.80;1254.40;;;;;;5014593;28;20450;-74
2021/04/01 10:44:20;;;;;;;14.05;8.60;;;537.70;1280.00;;;;;;4997323;28;20120;-73
2021/04/01 10:46:54;;;;;;;16.63;8.05;;;538.10;1280.00;;;;;;4997419;28;20026;-73
2021/04/01 10:49:44;;;;;;;10.90;7.63;;;538.30;1280.00;;;;;;4997482;28;20480;-73
2021/04/01 10:52:12;;;;;;;12.90;8.98;;;563.30;1254.40;;;;;;5012685;28;20088;-73
2021/04/01 10:54:43;;;;;;;19.45;9.95;;;563.40;1254.40;;;;;;5015073;28;20022;-74
2021/04/01 10:57:12;;;;;;;17.02;8.68;;;563.30;1254.40;;;;;;5015031;28;20108;-74
2021/04/01 10:59:46;;;;;;;11.00;8.25;;;563.30;1254.40;;;;;;4997175;28;20026;-78
2021/04/01 11:02:23;;;;;;;15.63;9.98;;;563.20;1254.40;;;;;;4997333;28;20030;-78
2021/04/01 11:05:08;;;;;;;15.10;9.27;;;563.80;1228.80;;;;;;5015055;28;20053;-80
2021/04/01 11:07:44;;;;;;;12.93;8.40;;;564.00;1203.20;;;;;;4997463;28;20026;-75
2021/04/01 11:10:21;;;;;;;16.20;8.63;;;564.00;1228.80;;;;;;4997658;28;20536;-75
2021/04/01 11:12:56;;;;;;;16.88;9.65;;;588.90;1203.20;;;;;;4996620;28;20056;-77
2021/04/01 11:15:27;;;;;;;18.45;9.80;;;589.20;1177.60;;;;;;4996204;28;20474;-76
2021/04/01 11:18:05;;;;;;;15.75;8.93;;;588.90;1177.60;;;;;;4996962;28;20385;-76
2021/04/01 11:20:39;;;;;;;15.45;9.60;;;564.10;1203.20;;;;;;5013389;28;20030;-77
2021/04/01 11:23:11;;;;;;;17.45;8.57;;;563.60;1228.80;;;;;;4996700;28;20057;-78
2021/04/01 11:25:44;;;;;;;11.85;7.88;;;563.80;1228.80;;;;;;4996801;28;20397;-75
2021/04/01 11:28:10;;;;;;;14.57;9.73;;;563.90;1177.60;;;;;;4994716;28;20026;-75
2021/04/01 11:30:47;;;;;;;13.77;9.85;;;589.20;1177.60;;;;;;5013369;28;20033;-78
2021/04/01 11:33:15;;;;;;;12.50;9.45;;;589.70;1152.00;;;;;;5013898;28;20080;-77
2021/04/01 11:35:43;;;;;;;16.77;11.02;;;589.70;1152.00;;;;;;4996204;28;20026;-78
2021/04/01 11:38:19;;;;;;;10.35;7.88;;;614.80;1177.60;;;;;;4996666;28;20035;-79
2021/04/01 11:41:07;;;;;;;10.13;7.53;;;614.70;1126.40;;;;;;4994784;28;20030;-79
2021/04/01 11:43:35;;;;;;;12.90;8.18;;;614.90;1100.80;;;;;;5012628;28;20026;-77
2021/04/01 11:46:17;;;;;;;10.10;8.13;;;614.80;1100.80;;;;;;5012052;28;20077;-80
2021/04/01 11:48:44;;;;;;;12.00;7.13;;;614.50;1075.20;;;;;;5013031;28;20092;-77
2021/04/01 11:51:35;;;;;;;12.85;7.35;;;589.60;1126.40;;;;;;4995082;28;20517;-77
2021/04/01 11:54:03;;;;;;;15.65;7.95;;;614.80;1100.80;;;;;;4994639;28;20034;-78
2021/04/01 11:56:37;;;;;;;13.73;7.40;;;614.90;1075.20;;;;;;4996468;28;20030;-76
2021/04/01 11:59:07;;;;;;;9.00;5.88;;;614.90;1075.20;;;;;;5014078;28;20049;-77
2021/04/01 12:01:36;;;;;;;10.63;6.72;;;615.10;1075.20;;;;;;4996020;28;20034;-77
2021/04/01 12:04:08;;;;;;;9.80;6.68;;;615.10;1075.20;;;;;;5014028;28;20030;-78
2021/04/01 12:06:36;;;;;;;11.30;7.30;;;640.00;1049.60;;;;;;5013497;28;20033;-76
2021/04/01 12:09:02;;;;;;;12.95;9.52;;;615.10;1075.20;;;;;;4996194;28;20383;-76
2021/04/01 12:11:40;;;;;;;15.52;10.18;;;640.20;1049.60;;;;;;4993628;28;20037;-78
2021/04/01 12:14:15;;;;;;;14.82;7.68;;;615.20;1049.60;;;;;;4995150;28;20477;-76
2021/04/01 12:16:41;;;;;;;9.75;7.05;;;615.10;1049.60;;;;;;4995192;28;20022;-76
2021/04/01 12:19:07;;;;;;;24.08;19.45;;;614.70;1049.60;;;;;;4997856;28;20041;-75
2021/04/01 12:21:34;;;;;;;18.88;14.32;;;615.20;1049.60;;;;;;5000123;28;20076;-77
2021/04/01 12:24:02;;;;;;;23.90;17.75;;;615.00;1024.00;;;;;;5012556;28;20476;-79
2021/04/01 12:26:30;;;;;;;14.55;11.40;;;640.10;1049.60;;;;;;5014489;28;20373;-79
2021/04/01 12:29:01;;;;;;;12.40;6.38;;;640.50;1049.60;;;;;;4994178;28;20058;-78
2021/04/01 12:32:02;;;;;;;11.68;8.27;;;640.10;972.80;;;;;;5012985;28;20030;-80
2021/04/01 12:34:30;;;;;;;16.10;10.85;;;640.20;998.40;;;;;;5010896;28;20041;-80
2021/04/01 12:37:04;;;;;;;18.33;8.63;;;640.60;998.40;;;;;;4995456;28;20030;-79
2021/04/01 12:39:35;;;;;;;12.02;6.97;;;640.70;972.80;;;;;;4995875;28;20033;-79
2021/04/01 12:42:02;;;;;;;10.35;6.63;;;640.60;972.80;;;;;;4995029;28;20104;-79
2021/04/01 12:44:39;;;;;;;13.05;7.47;;;615.10;1024.00;;;;;;4999015;28;20097;-79
2021/04/01 12:47:06;;;;;;;10.25;7.45;;;615.20;998.40;;;;;;4999720;28;20030;-79
2021/04/01 12:49:36;;;;;;;10.25;6.35;;;589.60;1024.00;;;;;;4999789;28;20120;-77
2021/04/01 12:52:04;;;;;;;8.25;6.20;;;589.60;1049.60;;;;;;5016738;28;20061;-76
2021/04/01 12:54:35;;;;;;;9.98;7.72;;;589.40;1075.20;;;;;;4998246;28;20445;-77
2021/04/01 12:57:13;;;;;;;10.65;6.40;;;589.60;1075.20;;;;;;5016310;28;20026;-75
2021/04/01 12:59:49;;;;;;;13.15;8.57;;;589.50;1075.20;;;;;;4998442;28;20030;-76
2021/04/01 13:02:23;;;;;;;11.02;6.47;;;589.40;1075.20;;;;;;4996535;28;20022;-76
2021/04/01 13:05:00;;;;;;;11.15;7.07;;;588.90;1100.80;;;;;;4998702;28;20373;-77
2021/04/01 13:12:47;;;;;;;10.15;7.07;;;589.20;1075.20;;;;;;5015947;28;20045;-77
2021/04/01 13:15:14;;;;;;;17.45;10.32;;;614.50;1049.60;;;;;;5015062;28;20022;-78
2021/04/01 13:17:40;;;;;;;9.95;8.05;;;614.90;1075.20;;;;;;4998752;28;20377;-78
2021/04/01 13:20:06;;;;;;;13.63;9.85;;;614.40;1049.60;;;;;;5014628;28;20129;-77
2021/04/01 13:22:45;;;;;;;16.48;11.48;;;589.60;1075.20;;;;;;5014200;28;20033;-77
2021/04/01 13:25:14;;;;;;;15.32;8.30;;;589.50;1100.80;;;;;;4978051;28;20030;-77
2021/04/01 13:27:45;;;;;;;11.63;7.63;;;589.10;1100.80;;;;;;4996307;28;20061;-78
2021/04/01 13:30:11;;;;;;;16.15;12.05;;;588.80;1100.80;;;;;;4982571;28;20042;-78
2021/04/01 13:35:34;;;;;;;14.90;9.60;;;563.70;1100.80;;;;;;5015742;28;20117;-77
2021/04/01 13:38:15;;;;;;;13.00;7.85;;;589.00;1100.80;;;;;;5014160;28;20420;-77
2021/04/01 13:40:44;;;;;;;9.88;6.75;;;564.10;1100.80;;;;;;4997196;28;20033;-78
2021/04/01 13:43:12;;;;;;;13.85;10.18;;;563.80;1100.80;;;;;;4998402;28;20462;-79
2021/04/01 13:45:39;;;;;;;11.63;7.13;;;563.90;1100.80;;;;;;5016004;28;20462;-78
2021/04/01 13:48:09;;;;;;;12.85;7.78;;;589.30;1100.80;;;;;;4998078;28;20137;-77
2021/04/01 13:50:38;;;;;;;11.20;8.98;;;589.30;1075.20;;;;;;4998508;28;20037;-78
2021/04/01 13:53:23;;;;;;;13.77;7.63;;;614.50;1100.80;;;;;;4998080;28;20026;-78
2021/04/01 13:55:56;;;;;;;10.15;6.00;;;614.50;1024.00;;;;;;5015032;28;20097;-77
2021/04/01 14:09:54;;;;;;;10.48;7.80;;;640.20;972.80;;;;;;5013853;28;20393;-78
2021/04/01 14:12:20;;;;;;;10.98;7.28;;;640.50;972.80;;;;;;4997732;28;20050;-78
2021/04/01 14:14:46;;;;;;;10.95;6.57;;;640.00;972.80;;;;;;4996451;28;20104;-76
2021/04/01 14:17:16;;;;;;;12.60;8.30;;;615.30;972.80;;;;;;4998097;28;20117;-81
2021/04/01 14:19:43;;;;;;;9.48;6.47;;;640.00;972.80;;;;;;4998108;28;20060;-81
2021/04/01 14:22:09;;;;;;;9.82;8.10;;;640.00;972.80;;;;;;4997759;28;20069;-80
2021/04/01 14:29:36;;;;;;;9.88;6.93;;;640.70;972.80;;;;;;5015296;28;20034;-79
2021/04/01 14:32:03;;;;;;;19.42;14.13;;;640.70;947.20;;;;;;5015085;28;20382;-78
2021/04/01 14:34:32;;;;;;;12.30;8.18;;;640.70;947.20;;;;;;5013924;28;20033;-82
2021/04/01 14:37:00;;;;;;;16.42;11.63;;;640.80;972.80;;;;;;4997030;28;20030;-79
2021/04/01 14:39:29;;;;;;;17.15;10.50;;;665.70;972.80;;;;;;4996504;28;20109;-76
2021/04/01 14:42:06;;;;;;;20.65;12.02;;;640.90;972.80;;;;;;5014799;28;20032;-78
2021/04/01 14:44:33;;;;;;;36.22;26.10;;;665.60;998.40;;;;;;4996808;28;20470;-78
2021/04/01 14:46:58;;;;;;;12.15;9.10;;;665.80;972.80;;;;;;4999765;28;20430;-78
2021/04/01 14:49:25;;;;;;;12.90;7.95;;;665.90;972.80;;;;;;4996504;28;20028;-76
2021/04/01 14:51:52;;;;;;;14.07;11.10;;;640.40;947.20;;;;;;4996041;28;20073;-79
2021/04/01 14:54:20;;;;;;;14.82;8.93;;;640.40;947.20;;;;;;4997161;28;20355;-78
2021/04/01 14:56:58;;;;;;;11.73;7.30;;;640.60;972.80;;;;;;4997421;28;20080;-80
2021/04/01 14:59:28;;;;;;;115.20;96.00;;;615.20;972.80;;;;;;4997530;28;20076;-77
2021/04/01 15:01:55;;;;;;;75.25;52.47;;;640.10;972.80;;;;;;5015029;28;20061;-81